地図

経路データ

SID SEASON NUMBER BASIN SUBBASIN NAME ISO_TIME NATURE LAT LON WMO_WIND WMO_PRES WMO_AGENCY TRACK_TYPE DIST2LAND LANDFALL IFLAG USA_AGENCY USA_ATCF_ID USA_LAT USA_LON USA_RECORD USA_STATUS USA_WIND USA_PRES USA_SSHS USA_R34_NE USA_R34_SE USA_R34_SW USA_R34_NW USA_R50_NE USA_R50_SE USA_R50_SW USA_R50_NW USA_R64_NE USA_R64_SE USA_R64_SW USA_R64_NW USA_POCI USA_ROCI USA_RMW USA_EYE TOKYO_LAT TOKYO_LON TOKYO_GRADE TOKYO_WIND TOKYO_PRES TOKYO_R50_DIR TOKYO_R50_LONG TOKYO_R50_SHORT TOKYO_R30_DIR TOKYO_R30_LONG TOKYO_R30_SHORT TOKYO_LAND CMA_LAT CMA_LON CMA_CAT CMA_WIND CMA_PRES HKO_LAT HKO_LON HKO_CAT HKO_WIND HKO_PRES NEWDELHI_LAT NEWDELHI_LON NEWDELHI_GRADE NEWDELHI_WIND NEWDELHI_PRES NEWDELHI_CI NEWDELHI_DP NEWDELHI_POCI REUNION_LAT REUNION_LON REUNION_TYPE REUNION_WIND REUNION_PRES REUNION_TNUM REUNION_CI REUNION_RMW REUNION_R34_NE REUNION_R34_SE REUNION_R34_SW REUNION_R34_NW REUNION_R50_NE REUNION_R50_SE REUNION_R50_SW REUNION_R50_NW REUNION_R64_NE REUNION_R64_SE REUNION_R64_SW REUNION_R64_NW BOM_LAT BOM_LON BOM_TYPE BOM_WIND BOM_PRES BOM_TNUM BOM_CI BOM_RMW BOM_R34_NE BOM_R34_SE BOM_R34_SW BOM_R34_NW BOM_R50_NE BOM_R50_SE BOM_R50_SW BOM_R50_NW BOM_R64_NE BOM_R64_SE BOM_R64_SW BOM_R64_NW BOM_ROCI BOM_POCI BOM_EYE BOM_POS_METHOD BOM_PRES_METHOD NADI_LAT NADI_LON NADI_CAT NADI_WIND NADI_PRES WELLINGTON_LAT WELLINGTON_LON WELLINGTON_WIND WELLINGTON_PRES DS824_LAT DS824_LON DS824_STAGE DS824_WIND DS824_PRES TD9636_LAT TD9636_LON TD9636_STAGE TD9636_WIND TD9636_PRES TD9635_LAT TD9635_LON TD9635_WIND TD9635_PRES TD9635_ROCI NEUMANN_LAT NEUMANN_LON NEUMANN_CLASS NEUMANN_WIND NEUMANN_PRES MLC_LAT MLC_LON MLC_CLASS MLC_WIND MLC_PRES USA_GUST BOM_GUST BOM_GUST_PER REUNION_GUST REUNION_GUST_PER USA_SEAHGT USA_SEARAD_NE USA_SEARAD_SE USA_SEARAD_SW USA_SEARAD_NW STORM_SPEED STORM_DIR
1929178N21267 1929 39 NA GM NOT_NAMED 1929-06-27 00:00:00 TS 21.3000 -93.3000 35 hurdat_atl main 304 304 O_____________ hurdat_atl AL011929 21.3000 -93.3000 TS 35 0 12 356
1929178N21267 1929 39 NA GM NOT_NAMED 1929-06-27 03:00:00 TS 21.9050 -93.3425 main 322 322 P_____________ AL011929 21.9050 -93.3425 TS 35 0 12 356
1929178N21267 1929 39 NA GM NOT_NAMED 1929-06-27 06:00:00 TS 22.5000 -93.4000 35 hurdat_atl main 356 356 O_____________ hurdat_atl AL011929 22.5000 -93.4000 TS 35 0 12 353
1929178N21267 1929 39 NA GM NOT_NAMED 1929-06-27 09:00:00 TS 23.0725 -93.4851 main 398 398 P_____________ AL011929 23.0725 -93.4851 TS 40 0 11 350
1929178N21267 1929 39 NA GM NOT_NAMED 1929-06-27 12:00:00 TS 23.6000 -93.6000 45 hurdat_atl main 424 395 O_____________ hurdat_atl AL011929 23.6000 -93.6000 TS 45 0 10 347
1929178N21267 1929 39 NA GM NOT_NAMED 1929-06-27 15:00:00 TS 24.0650 -93.7352 main 390 354 P_____________ AL011929 24.0650 -93.7352 TS 50 0 9 343
1929178N21267 1929 39 NA GM NOT_NAMED 1929-06-27 18:00:00 TS 24.5000 -93.9000 55 hurdat_atl main 354 321 O_____________ hurdat_atl AL011929 24.5000 -93.9000 TS 55 0 10 340
1929178N21267 1929 39 NA GM NOT_NAMED 1929-06-27 21:00:00 TS 24.9575 -94.0925 main 318 288 P_____________ AL011929 24.9575 -94.0925 TS 60 0 10 338
1929178N21267 1929 39 NA GM NOT_NAMED 1929-06-28 00:00:00 TS 25.4000 -94.3000 65 hurdat_atl main 288 260 O_____________ hurdat_atl AL011929 25.4000 -94.3000 HU 65 1 9 337
1929178N21267 1929 39 NA GM NOT_NAMED 1929-06-28 03:00:00 TS 25.8074 -94.4853 main 260 239 P_____________ AL011929 25.8074 -94.4853 HU 67 1 9 336
1929178N21267 1929 39 NA GM NOT_NAMED 1929-06-28 06:00:00 TS 26.2000 -94.7000 70 hurdat_atl main 240 219 O_____________ hurdat_atl AL011929 26.2000 -94.7000 HU 70 1 9 331
1929178N21267 1929 39 NA GM NOT_NAMED 1929-06-28 09:00:00 TS 26.6000 -94.9776 main 219 189 P_____________ AL011929 26.6000 -94.9776 HU 72 1 10 326
1929178N21267 1929 39 NA GM NOT_NAMED 1929-06-28 12:00:00 TS 27.0000 -95.3000 75 hurdat_atl main 189 136 O_____________ hurdat_atl AL011929 27.0000 -95.3000 HU 75 1 10 323
1929178N21267 1929 39 NA GM NOT_NAMED 1929-06-28 15:00:00 TS 27.3795 -95.6333 main 136 77 P_____________ AL011929 27.3795 -95.6333 HU 77 1 10 322
1929178N21267 1929 39 NA GM NOT_NAMED 1929-06-28 18:00:00 TS 27.8000 -96.0000 80 982 hurdat_atl main 77 11 O_____________ hurdat_atl AL011929 27.8000 -96.0000 HU 80 982 1 11 324
1929178N21267 1929 39 NA GM NOT_NAMED 1929-06-28 21:00:00 TS 28.3000 -96.4000 80 982 hurdat_atl main 11 0 O_____________ hurdat_atl AL011929 28.3000 -96.4000 L HU 80 982 1 14 316
1929178N21267 1929 39 NA NA NOT_NAMED 1929-06-29 00:00:00 TS 28.8000 -97.1000 65 985 hurdat_atl main 0 0 O_____________ hurdat_atl AL011929 28.8000 -97.1000 HU 65 985 1 15 304
1929178N21267 1929 39 NA NA NOT_NAMED 1929-06-29 03:00:00 TS 29.1398 -97.8331 main 0 0 P_____________ AL011929 29.1398 -97.8331 HU 60 0 15 293
1929178N21267 1929 39 NA NA NOT_NAMED 1929-06-29 06:00:00 TS 29.4000 -98.7000 55 hurdat_atl main 0 0 O_____________ hurdat_atl AL011929 29.4000 -98.7000 TS 55 0 18 288
1929178N21267 1929 39 NA NA NOT_NAMED 1929-06-29 09:00:00 TS 29.6848 -99.7835 main 0 0 P_____________ AL011929 29.6848 -99.7835 TS 52 0 21 287
1929178N21267 1929 39 NA NA NOT_NAMED 1929-06-29 12:00:00 TS 30.0000 -101.000 50 hurdat_atl main 0 0 O_____________ hurdat_atl AL011929 30.0000 -101.000 TS 50 0 22 288
1929178N21267 1929 39 NA NA NOT_NAMED 1929-06-29 15:00:00 TS 30.3681 -102.199 main 0 0 P_____________ AL011929 30.3681 -102.199 TS 47 0 23 290
1929178N21267 1929 39 NA NA NOT_NAMED 1929-06-29 18:00:00 TS 30.8000 -103.500 45 hurdat_atl main 0 0 O_____________ hurdat_atl AL011929 30.8000 -103.500 TS 45 0 25 291
1929178N21267 1929 39 NA NA NOT_NAMED 1929-06-29 21:00:00 TS 31.2695 -104.964 main 0 0 P_____________ AL011929 31.2695 -104.964 TS 42 0 28 291
1929178N21267 1929 39 NA NA NOT_NAMED 1929-06-30 00:00:00 TS 31.8000 -106.500 40 1008 hurdat_atl main 0 0 O_____________ hurdat_atl AL011929 31.8000 -106.500 TS 40 1008 0 28 293
1929178N21267 1929 39 NA NA NOT_NAMED 1929-06-30 03:00:00 TS 32.3878 -108.008 main 0 0 P_____________ AL011929 32.3878 -108.008 TS 35 0 28 295
1929178N21267 1929 39 NA NA NOT_NAMED 1929-06-30 06:00:00 TS 33.0000 -109.500 30 hurdat_atl main 0 O_____________ hurdat_atl AL011929 33.0000 -109.500 TD 30 -1 28 296

IBTrACS Databaseについて

本データベースは、米国NOAAが公開する1842年以降の世界の熱帯低気圧のベストトラックデータアーカイブInternational Best Track Archive for Climate Stewardship (IBTrACS)を、ウェブで閲覧しやすい形式に変換したものです。

最終更新日:2021-11-26